createdAt,value
2019-03-31T00:01:47.359Z,16.97
2019-03-31T00:04:17.235Z,18.60
2019-03-31T00:06:47.095Z,16.05
2019-03-31T00:09:16.935Z,16.40
2019-03-31T00:11:47.062Z,15.87
2019-03-31T00:14:16.918Z,16.15
2019-03-31T00:16:46.751Z,15.98
2019-03-31T00:19:16.916Z,16.00
2019-03-31T00:21:46.762Z,16.45
2019-03-31T00:24:16.592Z,16.60
2019-03-31T00:26:46.550Z,16.20
2019-03-31T00:29:16.677Z,16.32
2019-03-31T00:31:46.545Z,16.48
2019-03-31T00:34:16.383Z,16.42
2019-03-31T00:36:46.202Z,15.45
2019-03-31T00:39:16.056Z,17.20
2019-03-31T00:41:45.960Z,15.43
2019-03-31T00:44:15.824Z,15.25
2019-03-31T00:46:45.672Z,15.70
2019-03-31T00:49:15.506Z,19.70
2019-03-31T00:51:45.295Z,17.95
2019-03-31T00:54:15.129Z,15.43
2019-03-31T00:56:44.964Z,14.85
2019-03-31T00:59:14.771Z,15.20
2019-03-31T01:01:51.303Z,17.70
2019-03-31T01:04:24.146Z,15.13
2019-03-31T01:06:55.517Z,15.73
2019-03-31T01:09:29.387Z,15.30
2019-03-31T01:11:59.648Z,15.88
2019-03-31T01:14:29.911Z,16.10
2019-03-31T01:17:00.773Z,17.27
2019-03-31T01:19:30.848Z,16.27
2019-03-31T01:22:00.695Z,14.78
2019-03-31T01:24:30.559Z,16.20
2019-03-31T01:27:00.395Z,16.23
2019-03-31T01:29:30.219Z,15.03
2019-03-31T01:32:00.043Z,15.15
2019-03-31T01:34:29.864Z,15.48
2019-03-31T01:36:59.649Z,15.60
2019-03-31T01:39:30.626Z,16.42
2019-03-31T01:42:00.633Z,15.83
2019-03-31T01:44:30.455Z,19.98
2019-03-31T01:47:00.290Z,16.57
2019-03-31T01:49:30.118Z,15.83
2019-03-31T01:51:59.934Z,16.80
2019-03-31T01:54:29.767Z,16.73
2019-03-31T01:56:59.635Z,26.97
2019-03-31T01:59:29.466Z,17.17
2019-03-31T02:02:04.386Z,16.20
2019-03-31T02:04:30.837Z,16.62
2019-03-31T02:07:00.758Z,16.27
2019-03-31T02:09:30.534Z,16.20
2019-03-31T02:12:00.518Z,16.93
2019-03-31T02:14:30.398Z,16.02
2019-03-31T02:17:00.285Z,16.95
2019-03-31T02:19:30.024Z,16.48
2019-03-31T02:21:59.871Z,16.95
2019-03-31T02:24:29.648Z,17.25
2019-03-31T02:26:59.596Z,17.73
2019-03-31T02:29:31.293Z,18.25
2019-03-31T02:32:01.120Z,18.07
2019-03-31T02:34:30.947Z,17.65
2019-03-31T02:37:00.928Z,17.75
2019-03-31T02:39:30.755Z,17.35
2019-03-31T02:42:00.619Z,17.45
2019-03-31T02:44:30.485Z,17.83
2019-03-31T02:47:00.299Z,18.63
2019-03-31T02:49:30.128Z,18.70
2019-03-31T02:51:59.945Z,18.75
2019-03-31T02:54:29.749Z,18.35
2019-03-31T02:56:59.987Z,18.55
2019-03-31T02:59:32.415Z,18.82
2019-03-31T03:02:03.107Z,18.07
2019-03-31T03:04:35.212Z,19.45
2019-03-31T03:07:05.796Z,19.55
2019-03-31T03:09:37.352Z,19.55
2019-03-31T03:12:10.464Z,20.37
2019-03-31T03:14:40.499Z,19.57
2019-03-31T03:17:10.357Z,20.10
2019-03-31T03:19:40.327Z,19.70
2019-03-31T03:22:10.072Z,20.57
2019-03-31T03:24:39.981Z,20.20
2019-03-31T03:27:09.807Z,20.77
2019-03-31T03:29:39.629Z,21.50
2019-03-31T03:32:09.700Z,21.52
2019-03-31T03:34:39.504Z,21.73
2019-03-31T03:37:09.323Z,22.13
2019-03-31T03:39:39.128Z,22.07
2019-03-31T03:42:08.937Z,21.10
2019-03-31T03:44:38.759Z,23.02
2019-03-31T03:47:08.565Z,22.25
2019-03-31T03:49:38.407Z,21.85
2019-03-31T03:52:08.239Z,22.03
2019-03-31T03:54:38.130Z,22.73
2019-03-31T03:57:08.037Z,22.90
2019-03-31T03:59:37.899Z,22.43
2019-03-31T04:02:07.693Z,22.70
2019-03-31T04:04:37.657Z,23.50
2019-03-31T04:07:07.649Z,23.02
2019-03-31T04:09:37.492Z,23.02
2019-03-31T04:12:07.342Z,23.85
2019-03-31T04:14:37.526Z,23.57
2019-03-31T04:17:07.396Z,23.55
2019-03-31T04:19:37.464Z,24.52
2019-03-31T04:22:07.245Z,25.68
2019-03-31T04:24:37.085Z,26.20
2019-03-31T04:27:07.139Z,25.20
2019-03-31T04:29:36.834Z,25.95
2019-03-31T04:32:06.650Z,25.82
2019-03-31T04:34:37.038Z,27.25
2019-03-31T04:37:07.169Z,27.58
2019-03-31T04:39:36.971Z,27.37
2019-03-31T04:42:06.765Z,28.37
2019-03-31T04:44:36.596Z,27.03
2019-03-31T04:47:06.354Z,28.60
2019-03-31T04:49:36.154Z,27.48
2019-03-31T04:52:06.026Z,27.80
2019-03-31T04:54:35.827Z,28.55
2019-03-31T04:57:05.664Z,28.45
2019-03-31T04:59:35.383Z,28.00
2019-03-31T05:02:05.557Z,27.90
2019-03-31T05:04:35.377Z,29.20
2019-03-31T05:07:05.222Z,29.72
2019-03-31T05:09:35.028Z,28.98
2019-03-31T05:12:04.834Z,28.70
2019-03-31T05:14:34.636Z,29.37
2019-03-31T05:17:05.563Z,29.37
2019-03-31T05:19:35.365Z,28.10
2019-03-31T05:22:05.204Z,28.45
2019-03-31T05:24:35.053Z,28.15
2019-03-31T05:27:04.850Z,29.07
2019-03-31T05:29:34.647Z,28.05
2019-03-31T05:32:04.509Z,28.75
2019-03-31T05:34:34.328Z,28.52
2019-03-31T05:37:04.066Z,30.32
2019-03-31T05:39:33.871Z,29.27
2019-03-31T05:42:03.744Z,29.50
2019-03-31T05:44:33.578Z,28.92
2019-03-31T05:47:03.434Z,29.18
2019-03-31T05:49:33.227Z,29.07
2019-03-31T05:52:03.105Z,29.00
2019-03-31T05:54:32.930Z,28.25
2019-03-31T05:57:02.728Z,27.67
2019-03-31T05:59:32.500Z,26.60
2019-03-31T06:02:02.334Z,26.75
2019-03-31T06:04:33.386Z,26.80
2019-03-31T06:07:04.540Z,26.82
2019-03-31T06:09:34.373Z,26.73
2019-03-31T06:12:10.156Z,26.42
2019-03-31T06:14:40.316Z,25.72
2019-03-31T06:17:10.149Z,24.70
2019-03-31T06:19:39.976Z,24.25
2019-03-31T06:22:09.807Z,24.47
2019-03-31T06:24:39.572Z,23.57
2019-03-31T06:27:09.486Z,22.90
2019-03-31T06:29:39.299Z,23.12
2019-03-31T06:32:09.107Z,21.97
2019-03-31T06:34:47.371Z,22.40
2019-03-31T06:37:10.503Z,21.07
2019-03-31T06:39:40.239Z,20.90
2019-03-31T06:42:10.164Z,21.05
2019-03-31T06:44:39.966Z,21.42
2019-03-31T06:47:09.782Z,21.70
2019-03-31T06:49:39.648Z,21.70
2019-03-31T06:52:09.543Z,22.25
2019-03-31T06:54:39.452Z,23.55
2019-03-31T06:57:09.303Z,23.38
2019-03-31T06:59:39.447Z,22.80
2019-03-31T07:02:09.272Z,19.20
2019-03-31T07:04:39.178Z,19.87
2019-03-31T07:07:09.303Z,18.62
2019-03-31T07:09:39.059Z,19.00
2019-03-31T07:12:08.892Z,17.67
2019-03-31T07:14:38.783Z,16.30
2019-03-31T07:17:08.633Z,14.38
2019-03-31T07:19:38.485Z,14.38
2019-03-31T07:22:10.655Z,15.03
2019-03-31T07:24:40.689Z,12.37
2019-03-31T07:27:10.563Z,11.20
2019-03-31T07:29:40.421Z,11.12
2019-03-31T07:32:10.282Z,10.95
2019-03-31T07:34:40.166Z,11.30
2019-03-31T07:37:10.059Z,10.70
2019-03-31T07:39:40.012Z,10.90
2019-03-31T07:42:10.128Z,11.15
2019-03-31T07:44:40.267Z,10.93
2019-03-31T07:47:10.031Z,10.72
2019-03-31T07:49:39.770Z,10.65
2019-03-31T07:52:09.622Z,11.18
2019-03-31T07:54:39.411Z,10.53
2019-03-31T07:57:09.298Z,10.93
2019-03-31T07:59:39.100Z,10.45
2019-03-31T08:02:08.957Z,10.80
2019-03-31T08:04:38.718Z,11.18
2019-03-31T08:07:08.483Z,11.22
2019-03-31T08:09:38.210Z,10.73
2019-03-31T08:12:07.991Z,10.30
2019-03-31T08:14:37.859Z,10.70
2019-03-31T08:17:07.737Z,10.93
2019-03-31T08:19:37.620Z,10.35
2019-03-31T08:22:07.343Z,10.23
2019-03-31T08:24:43.869Z,10.32
2019-03-31T08:27:15.109Z,10.05
2019-03-31T08:29:49.588Z,9.30
2019-03-31T08:32:19.601Z,9.38
2019-03-31T08:34:49.363Z,9.10
2019-03-31T08:37:19.332Z,8.53
2019-03-31T08:39:49.132Z,8.40
2019-03-31T08:42:18.871Z,8.63
2019-03-31T08:44:48.684Z,7.97
2019-03-31T08:47:18.493Z,8.43
2019-03-31T08:49:48.319Z,9.23
2019-03-31T08:52:18.066Z,9.70
2019-03-31T08:54:48.200Z,9.08
2019-03-31T08:57:18.071Z,9.78
2019-03-31T08:59:47.954Z,10.18
2019-03-31T09:02:26.368Z,9.43
2019-03-31T09:04:56.305Z,9.55
2019-03-31T09:07:26.271Z,9.45
2019-03-31T09:09:56.130Z,10.03
2019-03-31T09:12:25.931Z,10.48
2019-03-31T09:14:55.774Z,9.68
2019-03-31T09:17:25.633Z,9.90
2019-03-31T09:19:55.375Z,10.30
2019-03-31T09:22:25.320Z,10.73
2019-03-31T09:24:55.184Z,9.03
2019-03-31T09:27:25.378Z,8.20
2019-03-31T09:29:55.227Z,8.00
2019-03-31T09:32:25.033Z,8.50
2019-03-31T09:34:54.822Z,9.40
2019-03-31T09:37:24.563Z,9.78
2019-03-31T09:39:54.328Z,10.80
2019-03-31T09:42:24.133Z,10.93
2019-03-31T09:44:53.923Z,11.70
2019-03-31T09:47:23.787Z,11.18
2019-03-31T09:49:53.567Z,11.68
2019-03-31T09:52:25.095Z,10.45
2019-03-31T09:54:54.835Z,11.03
2019-03-31T09:57:24.648Z,10.65
2019-03-31T09:59:54.462Z,10.53
2019-03-31T10:02:24.295Z,10.20
2019-03-31T10:04:54.098Z,10.33
2019-03-31T10:23:31.634Z,7.60
2019-03-31T10:26:01.352Z,6.90
2019-03-31T10:28:31.102Z,7.28
2019-03-31T10:31:03.090Z,7.15
2019-03-31T10:33:32.749Z,6.87
2019-03-31T10:36:02.406Z,5.83
2019-03-31T10:38:32.095Z,5.67
2019-03-31T10:41:01.759Z,6.20
2019-03-31T10:43:31.419Z,6.00
2019-03-31T10:46:01.278Z,5.92
2019-03-31T10:48:33.096Z,6.35
2019-03-31T10:51:02.798Z,6.28
2019-03-31T10:53:36.568Z,6.70
2019-03-31T10:56:06.263Z,6.70
2019-03-31T10:58:35.922Z,6.43
2019-03-31T11:31:18.052Z,5.55
2019-03-31T11:33:47.949Z,5.60
2019-03-31T11:36:17.624Z,5.08
2019-03-31T11:38:47.264Z,5.00
2019-03-31T11:57:52.311Z,3.90
2019-03-31T12:00:22.641Z,4.05
2019-03-31T12:02:52.789Z,3.83
2019-03-31T12:05:22.570Z,3.40
2019-03-31T12:08:01.750Z,3.50
2019-03-31T12:10:32.097Z,4.45
2019-03-31T12:13:02.589Z,3.40
2019-03-31T12:27:02.795Z,4.20
2019-03-31T12:29:32.425Z,4.67
2019-03-31T12:32:03.170Z,4.97
2019-03-31T12:34:32.851Z,3.00
2019-03-31T13:07:30.500Z,1.80
2019-03-31T13:10:00.355Z,1.75
2019-03-31T13:12:30.061Z,1.52
2019-03-31T13:14:59.701Z,1.60
2019-03-31T13:17:29.308Z,1.15
2019-03-31T13:19:58.957Z,1.27
2019-03-31T13:22:28.573Z,2.08
2019-03-31T13:24:58.225Z,2.45
2019-03-31T13:27:27.841Z,1.25
2019-03-31T13:29:57.928Z,1.72
2019-03-31T13:32:27.558Z,2.10
2019-03-31T13:34:57.174Z,1.98
2019-03-31T13:37:26.821Z,2.85
2019-03-31T13:39:56.525Z,1.52
2019-03-31T13:42:26.164Z,1.95
2019-03-31T13:44:55.745Z,1.32
2019-03-31T13:47:25.305Z,1.77
2019-03-31T13:49:55.293Z,1.70
2019-03-31T13:52:25.073Z,1.40
2019-03-31T13:54:54.700Z,1.40
2019-03-31T13:57:24.561Z,1.43
2019-03-31T13:59:54.632Z,1.80
2019-03-31T14:02:24.257Z,1.60
2019-03-31T14:04:53.873Z,1.80
2019-03-31T14:07:23.525Z,1.52
2019-03-31T14:09:53.060Z,1.50
2019-03-31T14:12:22.697Z,1.90
2019-03-31T14:14:52.421Z,1.30
2019-03-31T14:17:24.477Z,1.30
2019-03-31T14:19:53.426Z,1.47
2019-03-31T14:22:23.013Z,1.37
2019-03-31T14:24:52.660Z,1.42
2019-03-31T14:27:22.271Z,1.15
2019-03-31T14:29:51.822Z,1.60
2019-03-31T14:32:21.602Z,1.27
2019-03-31T14:34:51.276Z,1.52
2019-03-31T14:37:21.086Z,1.25
2019-03-31T14:39:50.698Z,1.40
2019-03-31T14:42:20.309Z,1.27
2019-03-31T14:44:49.946Z,1.45
2019-03-31T14:47:19.645Z,1.32
2019-03-31T14:49:49.280Z,1.70
2019-03-31T14:52:27.128Z,1.80
2019-03-31T14:54:50.256Z,1.20
2019-03-31T14:57:19.881Z,1.20
2019-03-31T14:59:49.621Z,1.12
2019-03-31T15:02:19.304Z,1.35
2019-03-31T15:04:48.896Z,1.07
2019-03-31T15:07:18.524Z,1.10
2019-03-31T15:09:48.177Z,1.40
2019-03-31T15:12:17.760Z,1.30
2019-03-31T15:14:47.413Z,1.40
2019-03-31T15:17:17.499Z,1.10
2019-03-31T15:19:47.100Z,1.17
2019-03-31T15:22:16.745Z,1.45
2019-03-31T15:24:49.672Z,1.40
2019-03-31T15:27:19.322Z,1.12
2019-03-31T15:29:49.185Z,1.40
2019-03-31T15:32:18.826Z,1.00
2019-03-31T15:34:48.507Z,1.20
2019-03-31T15:37:18.138Z,1.07
2019-03-31T15:39:47.757Z,7.85
2019-03-31T15:42:17.457Z,3.70
2019-03-31T15:44:47.063Z,2.30
2019-03-31T15:47:16.696Z,1.40
2019-03-31T15:49:46.313Z,1.80
2019-03-31T15:52:15.952Z,1.27
2019-03-31T15:54:45.579Z,1.47
2019-03-31T15:57:15.231Z,1.32
2019-03-31T15:59:50.193Z,1.20
2019-03-31T16:02:20.400Z,1.32
2019-03-31T16:04:49.999Z,1.35
2019-03-31T16:07:19.648Z,1.50
2019-03-31T16:09:48.690Z,1.40
2019-03-31T16:12:17.802Z,1.25
2019-03-31T16:14:47.263Z,1.30
2019-03-31T16:17:16.376Z,1.30
2019-03-31T16:19:45.446Z,1.30
2019-03-31T16:22:14.520Z,1.30
2019-03-31T16:24:47.225Z,1.45
2019-03-31T16:27:16.294Z,1.30
2019-03-31T16:29:45.399Z,1.60
2019-03-31T16:32:14.503Z,1.20
2019-03-31T16:34:43.513Z,1.37
2019-03-31T16:37:12.585Z,1.32
2019-03-31T16:39:41.652Z,1.70
2019-03-31T16:42:10.646Z,1.65
2019-03-31T16:44:39.722Z,1.70
2019-03-31T16:47:08.756Z,1.45
2019-03-31T16:49:37.842Z,1.87
2019-03-31T16:52:06.905Z,1.40
2019-03-31T16:54:35.955Z,1.70
2019-03-31T16:57:05.036Z,1.83
2019-03-31T16:59:34.118Z,7.00
2019-03-31T17:02:02.755Z,3.55
2019-03-31T17:04:31.340Z,3.77
2019-03-31T17:07:00.010Z,1.82
2019-03-31T17:09:28.596Z,2.12
2019-03-31T17:11:57.224Z,2.17
2019-03-31T17:14:25.799Z,1.70
2019-03-31T17:16:54.326Z,1.60
2019-03-31T17:19:22.900Z,2.55
2019-03-31T17:21:51.444Z,4.60
2019-03-31T17:24:20.353Z,2.00
2019-03-31T17:26:48.924Z,1.90
2019-03-31T17:29:17.442Z,2.67
2019-03-31T17:31:46.013Z,5.03
2019-03-31T17:34:14.649Z,2.75
2019-03-31T17:36:43.196Z,2.55
2019-03-31T17:39:11.741Z,2.15
2019-03-31T17:41:40.303Z,2.85
2019-03-31T17:44:08.827Z,5.45
2019-03-31T17:46:37.400Z,2.42
2019-03-31T17:49:06.015Z,2.27
2019-03-31T17:51:34.564Z,2.67
2019-03-31T17:54:06.067Z,2.60
2019-03-31T17:56:33.467Z,2.27
2019-03-31T17:59:02.061Z,2.52
2019-03-31T18:01:30.607Z,4.90
2019-03-31T18:03:59.173Z,3.55
2019-03-31T18:06:27.754Z,2.00
2019-03-31T18:08:56.312Z,2.90
2019-03-31T18:11:24.894Z,3.40
2019-03-31T18:13:53.420Z,2.20
2019-03-31T18:16:22.255Z,2.50
2019-03-31T18:18:50.901Z,1.85
2019-03-31T18:21:19.497Z,2.07
2019-03-31T18:23:48.039Z,2.92
2019-03-31T18:26:16.593Z,2.42
2019-03-31T18:28:45.206Z,2.70
2019-03-31T18:31:13.897Z,2.80
2019-03-31T18:33:42.453Z,3.00
2019-03-31T18:36:11.015Z,2.72
2019-03-31T18:38:39.581Z,3.22
2019-03-31T18:41:08.160Z,4.20
2019-03-31T18:43:50.261Z,2.40
2019-03-31T18:46:07.046Z,2.67
2019-03-31T18:48:35.644Z,2.40
2019-03-31T18:51:04.171Z,3.27
2019-03-31T18:53:46.553Z,2.80
2019-03-31T18:56:34.220Z,3.27
2019-03-31T18:59:20.885Z,4.78
2019-03-31T19:02:07.700Z,7.83
2019-03-31T19:05:01.225Z,2.50
2019-03-31T19:08:01.040Z,2.70
2019-03-31T19:10:57.684Z,5.47
2019-03-31T19:13:54.870Z,2.90
2019-03-31T19:16:44.489Z,2.40
2019-03-31T19:19:20.414Z,2.10
2019-03-31T19:22:04.762Z,2.30
2019-03-31T19:24:51.233Z,2.60
2019-03-31T19:27:38.941Z,2.58
2019-03-31T19:30:17.896Z,2.07
2019-03-31T19:33:08.484Z,1.95
2019-03-31T19:35:45.762Z,1.90
2019-03-31T19:38:24.094Z,2.10
2019-03-31T19:41:23.874Z,2.30
2019-03-31T19:44:11.973Z,2.10
2019-03-31T19:46:47.622Z,2.08
2019-03-31T19:49:40.146Z,2.27
2019-03-31T19:52:26.409Z,1.95
2019-03-31T19:55:11.999Z,1.77
2019-03-31T19:57:58.253Z,1.72
2019-03-31T20:00:44.828Z,1.75
2019-03-31T20:03:38.659Z,1.77
2019-03-31T20:06:24.005Z,1.90
2019-03-31T20:09:06.647Z,1.60
2019-03-31T20:11:52.025Z,2.05
2019-03-31T20:14:42.902Z,2.10
2019-03-31T20:17:27.160Z,1.83
2019-03-31T20:20:27.674Z,1.98
2019-03-31T20:23:15.808Z,2.17
2019-03-31T20:26:04.986Z,2.00
2019-03-31T20:28:42.752Z,1.90
2019-03-31T20:31:22.586Z,2.30
2019-03-31T20:34:08.670Z,2.30
2019-03-31T20:37:12.219Z,1.82
2019-03-31T20:40:00.409Z,1.80
2019-03-31T20:42:46.518Z,2.15
2019-03-31T20:45:15.994Z,2.27
2019-03-31T20:47:45.077Z,2.22
2019-03-31T20:50:15.597Z,2.08
2019-03-31T20:52:44.728Z,2.40
2019-03-31T20:55:16.431Z,2.40
2019-03-31T20:57:44.605Z,2.12
2019-03-31T21:00:14.448Z,1.80
2019-03-31T21:02:43.537Z,2.20
2019-03-31T21:05:12.604Z,2.10
2019-03-31T21:07:41.907Z,2.10
2019-03-31T21:10:10.977Z,2.25
2019-03-31T21:12:40.022Z,1.90
2019-03-31T21:15:09.160Z,1.98
2019-03-31T21:17:38.201Z,1.98
2019-03-31T21:20:07.268Z,1.95
2019-03-31T21:22:36.341Z,2.02
2019-03-31T21:25:05.629Z,2.65
2019-03-31T21:27:34.705Z,2.10
2019-03-31T21:30:03.990Z,2.00
2019-03-31T21:32:33.056Z,2.30
2019-03-31T21:35:02.099Z,2.25
2019-03-31T21:37:31.171Z,2.25
2019-03-31T21:40:00.396Z,2.40
2019-03-31T21:42:29.496Z,2.58
2019-03-31T21:44:58.840Z,2.42
2019-03-31T21:47:27.925Z,2.50
2019-03-31T21:49:56.977Z,2.20
2019-03-31T21:52:26.029Z,1.90
2019-03-31T21:54:55.493Z,1.80
2019-03-31T21:57:24.540Z,2.08
2019-03-31T21:59:54.658Z,1.60
2019-03-31T22:02:23.812Z,1.52
2019-03-31T22:04:52.979Z,1.80
2019-03-31T22:07:22.025Z,1.85
2019-03-31T22:09:51.128Z,1.67
2019-03-31T22:12:20.250Z,1.90
2019-03-31T22:14:50.288Z,1.55
2019-03-31T22:17:21.173Z,1.90
2019-03-31T22:19:50.232Z,2.20
2019-03-31T22:22:19.529Z,1.83
2019-03-31T22:24:48.678Z,2.20
2019-03-31T22:27:17.765Z,1.98
2019-03-31T22:29:46.861Z,1.85
2019-03-31T22:32:15.912Z,1.75
2019-03-31T22:34:45.022Z,1.90
2019-03-31T22:37:14.052Z,1.70
2019-03-31T22:39:43.105Z,1.75
2019-03-31T22:42:12.242Z,2.55
2019-03-31T22:44:41.315Z,2.27
2019-03-31T22:47:10.430Z,1.40
2019-03-31T22:49:39.529Z,1.55
2019-03-31T22:52:11.271Z,2.00
2019-03-31T22:54:42.046Z,2.10
2019-03-31T22:57:11.133Z,4.37
2019-03-31T22:59:40.160Z,1.90
2019-03-31T23:02:09.500Z,2.12
2019-03-31T23:04:38.544Z,2.00
2019-03-31T23:07:07.569Z,2.08
2019-03-31T23:09:36.618Z,1.65
2019-03-31T23:12:05.691Z,1.92
2019-03-31T23:14:34.774Z,1.90
2019-03-31T23:17:03.881Z,3.00
2019-03-31T23:19:32.930Z,1.95
2019-03-31T23:22:01.996Z,2.25
2019-03-31T23:24:31.109Z,1.87
2019-03-31T23:27:00.168Z,2.02
2019-03-31T23:29:29.208Z,1.80
2019-03-31T23:31:58.271Z,1.70
2019-03-31T23:34:27.335Z,1.90
2019-03-31T23:36:56.363Z,2.30
2019-03-31T23:39:25.418Z,2.10
2019-03-31T23:41:54.469Z,1.92
2019-03-31T23:44:23.553Z,2.10
2019-03-31T23:46:52.581Z,2.10
2019-03-31T23:49:21.616Z,1.90
2019-03-31T23:51:50.669Z,1.90
2019-03-31T23:54:19.749Z,1.80
2019-03-31T23:56:48.789Z,1.70
2019-03-31T23:59:17.820Z,1.82
